createdAt,value
2017-10-25T00:00:52.409Z,13.36
2017-10-25T00:02:01.972Z,13.31
2017-10-25T00:03:11.689Z,13.32
2017-10-25T00:04:21.207Z,13.35
2017-10-25T00:05:30.836Z,13.35
2017-10-25T00:06:41.063Z,13.39
2017-10-25T00:07:50.067Z,13.40
2017-10-25T00:08:59.700Z,13.43
2017-10-25T00:10:09.306Z,13.43
2017-10-25T00:11:18.915Z,13.43
2017-10-25T00:12:28.531Z,13.43
2017-10-25T00:13:38.183Z,13.44
2017-10-25T00:14:47.795Z,13.47
2017-10-25T00:15:57.378Z,13.48
2017-10-25T00:17:06.988Z,13.51
2017-10-25T00:18:16.694Z,13.50
2017-10-25T00:19:26.343Z,13.51
2017-10-25T00:20:35.863Z,13.52
2017-10-25T00:21:45.472Z,13.52
2017-10-25T00:22:55.098Z,13.53
2017-10-25T00:24:04.800Z,13.53
2017-10-25T00:25:14.330Z,13.53
2017-10-25T00:26:23.942Z,13.53
2017-10-25T00:27:34.068Z,13.53
2017-10-25T00:28:43.208Z,13.52
2017-10-25T00:29:52.818Z,13.53
2017-10-25T00:31:02.418Z,13.53
2017-10-25T00:32:12.084Z,13.56
2017-10-25T00:33:21.682Z,13.56
2017-10-25T00:34:31.607Z,13.56
2017-10-25T00:35:41.063Z,13.56
2017-10-25T00:36:50.616Z,13.56
2017-10-25T00:38:00.167Z,13.56
2017-10-25T00:39:09.808Z,13.56
2017-10-25T00:40:19.382Z,13.57
2017-10-25T00:41:29.556Z,13.57
2017-10-25T00:42:38.626Z,13.57
2017-10-25T00:43:48.251Z,13.59
2017-10-25T00:44:58.893Z,13.60
2017-10-25T00:46:07.650Z,13.59
2017-10-25T00:47:17.117Z,13.59
2017-10-25T00:48:27.257Z,13.60
2017-10-25T00:49:36.394Z,13.57
2017-10-25T00:50:45.981Z,13.57
2017-10-25T00:51:55.636Z,13.57
2017-10-25T00:53:05.218Z,13.59
2017-10-25T00:54:14.863Z,13.60
2017-10-25T00:55:25.559Z,13.61
2017-10-25T00:56:34.760Z,13.64
2017-10-25T00:57:43.801Z,13.64
2017-10-25T00:58:53.338Z,13.64
2017-10-25T01:00:02.972Z,13.64
2017-10-25T01:01:12.681Z,13.64
2017-10-25T01:02:22.692Z,13.64
2017-10-25T01:03:31.813Z,13.64
2017-10-25T01:04:41.512Z,13.65
2017-10-25T01:05:51.059Z,13.67
2017-10-25T01:07:00.681Z,13.68
2017-10-25T01:08:10.392Z,13.65
2017-10-25T01:09:20.033Z,13.68
2017-10-25T01:10:29.580Z,13.71
2017-10-25T01:11:39.267Z,13.72
2017-10-25T01:12:48.829Z,13.71
2017-10-25T01:13:58.460Z,13.72
2017-10-25T01:15:08.106Z,13.71
2017-10-25T01:16:17.672Z,13.71
2017-10-25T01:17:27.664Z,13.72
2017-10-25T01:18:36.914Z,13.72
2017-10-25T01:19:46.563Z,13.71
2017-10-25T01:20:56.161Z,13.72
2017-10-25T01:22:05.791Z,13.72
2017-10-25T01:23:15.417Z,13.73
2017-10-25T01:24:25.571Z,13.75
2017-10-25T01:25:34.671Z,13.76
2017-10-25T01:26:44.279Z,13.75
2017-10-25T01:27:53.897Z,13.76
2017-10-25T01:29:04.025Z,13.76
2017-10-25T01:30:13.230Z,13.77
2017-10-25T01:31:22.845Z,13.77
2017-10-25T01:32:33.508Z,13.77
2017-10-25T01:33:43.549Z,13.79
2017-10-25T01:34:52.167Z,13.79
2017-10-25T01:36:01.395Z,13.77
2017-10-25T01:37:11.020Z,13.79
2017-10-25T01:38:20.552Z,13.80
2017-10-25T01:39:30.276Z,13.79
2017-10-25T01:40:39.836Z,13.77
2017-10-25T01:41:49.443Z,13.77
2017-10-25T01:42:59.073Z,13.79
2017-10-25T01:44:08.680Z,13.77
2017-10-25T01:45:18.361Z,13.77
2017-10-25T01:46:27.972Z,13.77
2017-10-25T01:47:37.564Z,13.77
2017-10-25T01:48:47.195Z,13.77
2017-10-25T01:49:56.822Z,13.77
2017-10-25T01:51:06.543Z,13.77
2017-10-25T01:52:16.136Z,13.77
2017-10-25T01:53:25.717Z,13.77
2017-10-25T01:54:35.913Z,13.77
2017-10-25T01:55:45.054Z,13.80
2017-10-25T01:56:54.600Z,13.80
2017-10-25T01:58:04.228Z,13.79
2017-10-25T01:59:13.863Z,13.81
2017-10-25T02:00:23.510Z,13.81
2017-10-25T02:01:33.118Z,13.80
2017-10-25T02:02:42.749Z,13.82
2017-10-25T02:03:52.384Z,13.81
2017-10-25T02:05:02.005Z,13.81
2017-10-25T02:06:11.744Z,13.81
2017-10-25T02:07:21.361Z,13.81
2017-10-25T02:08:30.902Z,13.80
2017-10-25T02:09:40.533Z,13.80
2017-10-25T02:10:50.694Z,13.77
2017-10-25T02:11:59.795Z,13.75
2017-10-25T02:13:09.937Z,13.73
2017-10-25T02:14:19.057Z,13.73
2017-10-25T02:15:28.720Z,13.68
2017-10-25T02:16:38.323Z,13.67
2017-10-25T02:17:47.928Z,13.64
2017-10-25T02:18:57.588Z,13.61
2017-10-25T02:20:07.197Z,13.60
2017-10-25T02:21:16.832Z,13.56
2017-10-25T02:22:26.434Z,13.52
2017-10-25T02:23:36.067Z,13.48
2017-10-25T02:24:45.751Z,13.43
2017-10-25T02:25:55.333Z,13.39
2017-10-25T02:27:05.023Z,13.35
2017-10-25T02:28:14.561Z,13.32
2017-10-25T02:29:24.200Z,13.32
2017-10-25T02:30:33.992Z,13.32
2017-10-25T02:31:43.470Z,13.31
2017-10-25T02:32:53.070Z,13.26
2017-10-25T02:34:02.713Z,13.22
2017-10-25T02:35:12.345Z,13.14
2017-10-25T02:36:22.236Z,13.11
2017-10-25T02:37:31.560Z,13.11
2017-10-25T02:38:41.185Z,13.10
2017-10-25T02:39:51.800Z,13.10
2017-10-25T02:41:00.451Z,13.14
2017-10-25T02:42:10.143Z,13.17
2017-10-25T02:43:19.679Z,13.17
2017-10-25T02:44:29.372Z,13.17
2017-10-25T02:45:39.451Z,13.18
2017-10-25T02:46:48.542Z,13.18
2017-10-25T02:47:58.151Z,13.18
2017-10-25T02:49:07.836Z,13.19
2017-10-25T02:50:17.471Z,13.18
2017-10-25T02:51:27.529Z,13.17
2017-10-25T02:52:36.604Z,13.14
2017-10-25T02:53:46.782Z,13.10
2017-10-25T02:54:55.866Z,13.06
2017-10-25T02:56:05.495Z,13.06
2017-10-25T02:57:15.066Z,13.11
2017-10-25T02:58:24.694Z,13.15
2017-10-25T02:59:34.289Z,13.14
2017-10-25T03:00:43.961Z,13.13
2017-10-25T03:01:53.537Z,13.14
2017-10-25T03:03:03.127Z,13.15
2017-10-25T03:04:12.734Z,13.15
2017-10-25T03:05:22.391Z,13.13
2017-10-25T03:06:31.983Z,13.10
2017-10-25T03:07:41.660Z,13.06
2017-10-25T03:08:51.188Z,13.03
2017-10-25T03:10:00.788Z,13.02
2017-10-25T03:11:10.413Z,13.02
2017-10-25T03:12:20.099Z,13.03
2017-10-25T03:13:29.724Z,13.06
2017-10-25T03:14:39.231Z,13.11
2017-10-25T03:15:49.391Z,13.15
2017-10-25T03:16:58.477Z,13.21
2017-10-25T03:18:08.561Z,13.22
2017-10-25T03:19:18.192Z,13.23
2017-10-25T03:20:27.310Z,13.22
2017-10-25T03:21:36.920Z,13.21
2017-10-25T03:22:46.525Z,13.18
2017-10-25T03:23:56.620Z,13.18
2017-10-25T03:25:05.739Z,13.23
2017-10-25T03:26:15.370Z,13.30
2017-10-25T03:27:25.023Z,13.32
2017-10-25T03:28:35.158Z,13.36
2017-10-25T03:29:44.687Z,13.40
2017-10-25T03:30:53.801Z,13.47
2017-10-25T03:32:03.448Z,13.47
2017-10-25T03:33:13.067Z,13.50
2017-10-25T03:34:22.627Z,13.47
2017-10-25T03:35:32.235Z,13.46
2017-10-25T03:36:42.377Z,13.42
2017-10-25T03:37:51.495Z,13.42
2017-10-25T03:39:01.082Z,13.43
2017-10-25T03:40:10.763Z,13.50
2017-10-25T03:41:20.808Z,13.52
2017-10-25T03:42:29.959Z,13.56
2017-10-25T03:43:39.633Z,13.56
2017-10-25T03:44:49.191Z,13.56
2017-10-25T03:45:59.340Z,13.60
2017-10-25T03:47:08.886Z,13.60
2017-10-25T03:48:18.024Z,13.63
2017-10-25T03:49:27.623Z,13.64
2017-10-25T03:50:37.250Z,13.68
2017-10-25T03:51:46.859Z,13.71
2017-10-25T03:52:56.504Z,13.75
2017-10-25T03:54:06.152Z,13.76
2017-10-25T03:55:15.755Z,13.79
2017-10-25T03:56:25.430Z,13.81
2017-10-25T03:57:35.009Z,13.81
2017-10-25T03:58:45.704Z,13.84
2017-10-25T03:59:54.831Z,13.85
2017-10-25T04:01:03.869Z,13.88
2017-10-25T04:02:13.762Z,13.90
2017-10-25T04:03:23.230Z,13.93
2017-10-25T04:04:32.753Z,13.93
2017-10-25T04:05:42.379Z,13.94
2017-10-25T04:06:52.021Z,13.96
2017-10-25T04:08:01.672Z,13.97
2017-10-25T04:09:11.275Z,14.00
2017-10-25T04:10:21.090Z,14.00
2017-10-25T04:11:30.546Z,13.97
2017-10-25T04:12:40.196Z,13.97
2017-10-25T04:13:49.806Z,13.96
2017-10-25T04:14:59.514Z,13.97
2017-10-25T04:16:09.071Z,13.97
2017-10-25T04:17:18.733Z,13.97
2017-10-25T04:18:28.341Z,13.98
2017-10-25T04:19:37.975Z,14.00
2017-10-25T04:20:47.703Z,13.98
2017-10-25T04:21:57.337Z,14.00
2017-10-25T04:23:06.986Z,14.01
2017-10-25T04:24:16.513Z,14.02
2017-10-25T04:25:26.236Z,14.03
2017-10-25T04:26:35.794Z,14.06
2017-10-25T04:27:45.518Z,14.06
2017-10-25T04:28:55.134Z,14.05
2017-10-25T04:30:05.692Z,14.03
2017-10-25T04:31:14.334Z,14.02
2017-10-25T04:32:23.999Z,14.06
2017-10-25T04:33:33.608Z,14.06
2017-10-25T04:34:43.266Z,14.06
2017-10-25T04:35:53.007Z,14.06
2017-10-25T04:37:02.524Z,14.06
2017-10-25T04:38:12.180Z,14.06
2017-10-25T04:39:21.830Z,14.06
2017-10-25T04:40:31.435Z,14.07
2017-10-25T04:41:41.094Z,14.07
2017-10-25T04:42:50.756Z,14.10
2017-10-25T04:44:00.364Z,14.09
2017-10-25T04:45:10.096Z,14.09
2017-10-25T04:46:19.728Z,14.07
2017-10-25T04:47:29.378Z,14.09
2017-10-25T04:48:39.509Z,14.06
2017-10-25T04:49:49.056Z,14.09
2017-10-25T04:50:58.206Z,14.09
2017-10-25T04:52:07.970Z,14.09
2017-10-25T04:53:17.496Z,14.09
2017-10-25T04:54:27.608Z,14.07
2017-10-25T04:55:36.761Z,14.06
2017-10-25T04:56:47.447Z,14.06
2017-10-25T04:57:56.062Z,14.07
2017-10-25T04:59:05.689Z,14.06
2017-10-25T05:00:15.330Z,14.06
2017-10-25T05:01:24.961Z,14.06
2017-10-25T05:02:34.707Z,14.03
2017-10-25T05:03:44.724Z,14.06
2017-10-25T05:04:53.877Z,14.06
2017-10-25T05:06:03.516Z,14.07
2017-10-25T05:07:13.151Z,14.07
2017-10-25T05:08:22.818Z,14.07
2017-10-25T05:09:32.429Z,14.06
2017-10-25T05:10:42.069Z,14.07
2017-10-25T05:11:51.754Z,14.06
2017-10-25T05:13:01.688Z,14.06
2017-10-25T05:14:10.995Z,14.06
2017-10-25T05:15:20.656Z,14.05
2017-10-25T05:16:30.284Z,14.05
2017-10-25T05:17:39.947Z,14.06
2017-10-25T05:18:49.554Z,14.06
2017-10-25T05:19:59.197Z,14.09
2017-10-25T05:21:08.830Z,14.07
2017-10-25T05:22:18.471Z,14.06
2017-10-25T05:23:29.135Z,14.06
2017-10-25T05:24:37.820Z,14.06
2017-10-25T05:25:47.450Z,14.03
2017-10-25T05:26:57.028Z,14.06
2017-10-25T05:28:07.245Z,14.03
2017-10-25T05:29:16.311Z,14.03
2017-10-25T05:30:26.496Z,14.05
2017-10-25T05:31:36.136Z,14.06
2017-10-25T05:32:45.262Z,14.02
2017-10-25T05:33:54.883Z,14.03
2017-10-25T05:35:04.516Z,14.02
2017-10-25T05:36:14.167Z,14.02
2017-10-25T05:37:23.794Z,14.02
2017-10-25T05:38:33.469Z,14.02
2017-10-25T05:39:44.079Z,14.02
2017-10-25T05:40:52.717Z,14.01
2017-10-25T05:42:02.381Z,14.01
2017-10-25T05:43:12.017Z,14.01
2017-10-25T05:44:21.627Z,13.98
2017-10-25T05:45:31.271Z,14.01
2017-10-25T05:46:40.943Z,13.98
2017-10-25T05:47:51.273Z,13.97
2017-10-25T05:49:00.178Z,13.97
2017-10-25T05:50:09.820Z,13.96
2017-10-25T05:51:19.483Z,13.93
2017-10-25T05:52:29.093Z,13.97
2017-10-25T05:53:38.745Z,13.97
2017-10-25T05:54:48.452Z,13.97
2017-10-25T05:55:58.490Z,13.98
2017-10-25T05:57:07.645Z,13.97
2017-10-25T05:58:17.301Z,13.96
2017-10-25T05:59:26.911Z,13.97
2017-10-25T06:00:36.539Z,13.97
2017-10-25T06:01:46.176Z,13.97
2017-10-25T06:02:55.831Z,13.97
2017-10-25T06:04:05.540Z,13.97
2017-10-25T06:05:15.174Z,13.97
2017-10-25T06:06:24.725Z,13.97
2017-10-25T06:07:34.950Z,14.01
2017-10-25T06:08:44.094Z,14.01
2017-10-25T06:09:53.628Z,14.01
2017-10-25T06:11:03.335Z,14.01
2017-10-25T06:12:12.881Z,14.01
2017-10-25T06:13:22.551Z,14.02
2017-10-25T06:14:32.235Z,14.02
2017-10-25T06:15:41.874Z,14.02
2017-10-25T06:16:51.506Z,14.06
2017-10-25T06:18:01.317Z,14.10
2017-10-25T06:19:10.705Z,14.13
2017-10-25T06:20:20.345Z,14.14
2017-10-25T06:21:30.033Z,14.18
2017-10-25T06:22:39.624Z,14.18
2017-10-25T06:23:49.312Z,14.21
2017-10-25T06:24:58.931Z,14.22
2017-10-25T06:26:08.531Z,14.23
2017-10-25T06:27:18.200Z,14.27
2017-10-25T06:28:28.089Z,14.28
2017-10-25T06:29:37.437Z,14.31
2017-10-25T06:30:47.095Z,14.31
2017-10-25T06:31:56.730Z,14.31
2017-10-25T06:33:06.477Z,14.34
2017-10-25T06:34:16.098Z,14.34
2017-10-25T06:35:26.650Z,14.35
2017-10-25T06:36:35.362Z,14.36
2017-10-25T06:37:45.000Z,14.39
2017-10-25T06:38:54.649Z,14.40
2017-10-25T06:40:04.333Z,14.39
2017-10-25T06:41:14.568Z,14.43
2017-10-25T06:42:23.533Z,14.44
2017-10-25T06:43:33.204Z,14.44
2017-10-25T06:44:42.955Z,14.47
2017-10-25T06:45:52.600Z,14.47
2017-10-25T06:47:02.172Z,14.48
2017-10-25T06:48:11.819Z,14.51
2017-10-25T06:49:22.446Z,14.50
2017-10-25T06:50:31.583Z,14.52
2017-10-25T06:51:40.765Z,14.52
2017-10-25T06:52:50.525Z,14.55
2017-10-25T06:54:00.338Z,14.53
2017-10-25T06:55:09.702Z,14.53
2017-10-25T06:56:19.425Z,14.56
2017-10-25T06:57:29.059Z,14.55
2017-10-25T06:58:38.719Z,14.56
2017-10-25T06:59:48.328Z,14.59
2017-10-25T07:00:57.989Z,14.60
2017-10-25T07:02:08.151Z,14.63
2017-10-25T07:03:17.340Z,14.64
2017-10-25T07:04:26.966Z,14.64
2017-10-25T07:05:36.696Z,14.67
2017-10-25T07:06:46.303Z,14.68
2017-10-25T07:07:56.675Z,14.69
2017-10-25T07:09:05.602Z,14.72
2017-10-25T07:10:15.408Z,14.73
2017-10-25T07:11:25.547Z,14.73
2017-10-25T07:12:34.611Z,14.73
2017-10-25T07:13:44.511Z,14.77
2017-10-25T07:14:54.415Z,14.77
2017-10-25T07:16:03.566Z,14.77
2017-10-25T07:17:13.290Z,14.81
2017-10-25T07:18:23.145Z,14.82
2017-10-25T07:19:32.594Z,14.84
2017-10-25T07:20:42.238Z,14.85
2017-10-25T07:21:51.963Z,14.89
2017-10-25T07:23:01.585Z,14.92
2017-10-25T07:24:11.232Z,14.93
2017-10-25T07:25:21.477Z,14.93
2017-10-25T07:26:30.576Z,14.97
2017-10-25T07:27:40.250Z,15.02
2017-10-25T07:28:49.952Z,15.06
2017-10-25T07:29:59.605Z,15.09
2017-10-25T07:31:09.282Z,15.10
2017-10-25T07:32:18.968Z,15.14
2017-10-25T07:33:29.913Z,15.19
2017-10-25T07:34:38.332Z,15.23
2017-10-25T07:35:47.995Z,15.26
2017-10-25T07:36:57.678Z,15.28
2017-10-25T07:38:07.396Z,15.31
2017-10-25T07:39:17.582Z,15.35
2017-10-25T07:40:26.773Z,15.40
2017-10-25T07:41:36.445Z,15.43
2017-10-25T07:42:46.174Z,15.47
2017-10-25T07:43:55.852Z,15.51
2017-10-25T07:45:05.514Z,15.55
2017-10-25T07:46:15.280Z,15.56
2017-10-25T07:47:24.908Z,15.55
2017-10-25T07:48:34.623Z,15.60
2017-10-25T07:49:44.297Z,15.64
2017-10-25T07:50:54.013Z,15.64
2017-10-25T07:52:04.336Z,15.68
2017-10-25T07:53:13.666Z,15.73
2017-10-25T07:54:23.118Z,15.75
2017-10-25T07:55:32.926Z,15.72
2017-10-25T07:56:42.511Z,15.76
2017-10-25T07:57:52.220Z,15.76
2017-10-25T07:59:01.942Z,15.75
2017-10-25T08:00:11.630Z,15.77
2017-10-25T08:01:21.836Z,15.81
2017-10-25T08:02:31.645Z,15.84
2017-10-25T08:03:40.789Z,15.86
2017-10-25T08:04:50.527Z,15.88
2017-10-25T08:06:01.186Z,15.89
2017-10-25T08:07:09.906Z,15.85
2017-10-25T08:08:19.614Z,15.85
2017-10-25T08:09:29.382Z,15.86
2017-10-25T08:10:39.070Z,15.89
2017-10-25T08:11:48.756Z,15.85
2017-10-25T08:12:58.473Z,15.90
2017-10-25T08:14:08.701Z,15.94
2017-10-25T08:15:17.938Z,16.02
2017-10-25T08:16:27.676Z,15.98
2017-10-25T08:17:37.410Z,15.97
2017-10-25T08:18:48.048Z,15.94
2017-10-25T08:19:56.781Z,15.97
2017-10-25T08:21:06.487Z,16.03
2017-10-25T08:22:16.249Z,16.13
2017-10-25T08:23:25.931Z,16.27
2017-10-25T08:24:35.980Z,16.36
2017-10-25T08:25:45.380Z,16.44
2017-10-25T08:26:55.105Z,16.48
2017-10-25T08:28:04.835Z,16.53
2017-10-25T08:29:14.778Z,16.54
2017-10-25T08:30:25.308Z,16.59
2017-10-25T08:31:34.058Z,16.55
2017-10-25T08:32:44.788Z,16.56
2017-10-25T08:33:53.600Z,16.54
2017-10-25T08:35:03.353Z,16.47
2017-10-25T08:36:13.016Z,16.52
2017-10-25T08:37:23.319Z,16.64
2017-10-25T08:38:32.542Z,16.72
2017-10-25T08:39:42.358Z,16.77
2017-10-25T08:40:52.015Z,16.85
2017-10-25T08:42:01.758Z,16.93
2017-10-25T08:43:11.649Z,16.98
2017-10-25T08:44:21.525Z,16.95
2017-10-25T08:45:31.056Z,16.86
2017-10-25T08:46:40.894Z,16.70
2017-10-25T08:47:51.652Z,16.64
2017-10-25T08:49:00.310Z,16.53
2017-10-25T08:50:10.120Z,16.56
2017-10-25T08:51:19.821Z,16.63
2017-10-25T08:52:29.572Z,16.70
2017-10-25T08:53:39.408Z,16.93
2017-10-25T08:54:49.126Z,17.37
2017-10-25T08:55:59.452Z,17.54
2017-10-25T08:57:08.792Z,17.73
2017-10-25T08:58:18.474Z,17.96
2017-10-25T08:59:28.300Z,18.12
2017-10-25T09:00:38.132Z,18.23
2017-10-25T09:01:47.929Z,18.22
2017-10-25T09:02:57.763Z,18.13
2017-10-25T09:04:07.699Z,18.13
2017-10-25T09:05:18.174Z,18.10
2017-10-25T09:06:27.315Z,18.20
2017-10-25T09:07:37.790Z,18.15
2017-10-25T09:08:46.989Z,18.09
2017-10-25T09:09:57.266Z,18.12
2017-10-25T09:11:06.549Z,18.19
2017-10-25T09:12:16.384Z,18.20
2017-10-25T09:13:26.197Z,18.11
2017-10-25T09:14:36.018Z,17.97
2017-10-25T09:15:46.440Z,17.95
2017-10-25T09:16:55.749Z,17.81
2017-10-25T09:18:05.561Z,17.82
2017-10-25T09:19:15.324Z,17.69
2017-10-25T09:20:26.125Z,17.56
2017-10-25T09:21:34.904Z,17.52
2017-10-25T09:22:44.766Z,17.47
2017-10-25T09:23:54.478Z,17.47
2017-10-25T09:25:04.322Z,17.53
2017-10-25T09:26:15.068Z,17.62
2017-10-25T09:27:24.144Z,17.61
2017-10-25T09:28:33.826Z,17.67
2017-10-25T09:29:43.493Z,17.72
2017-10-25T09:30:53.313Z,17.89
2017-10-25T09:32:03.192Z,18.00
2017-10-25T09:33:12.968Z,18.00
2017-10-25T09:34:22.802Z,18.06
2017-10-25T09:35:32.771Z,18.12
2017-10-25T09:36:42.347Z,18.30
2017-10-25T09:37:52.174Z,18.50
2017-10-25T09:39:02.051Z,18.62
2017-10-25T09:40:12.855Z,18.62
2017-10-25T09:41:21.653Z,18.45
2017-10-25T09:42:31.566Z,18.20
2017-10-25T09:43:41.401Z,18.12
2017-10-25T09:44:51.136Z,18.11
2017-10-25T09:46:01.159Z,18.20
2017-10-25T09:47:10.814Z,18.32
2017-10-25T09:48:20.649Z,18.29
2017-10-25T09:49:30.488Z,18.28
2017-10-25T09:50:41.090Z,18.23
2017-10-25T09:51:50.161Z,18.22
2017-10-25T09:53:00.001Z,18.30
2017-10-25T09:54:09.746Z,18.22
2017-10-25T09:55:19.602Z,18.29
2017-10-25T09:56:29.416Z,18.37
2017-10-25T09:57:39.251Z,18.38
2017-10-25T09:58:49.088Z,18.46
2017-10-25T09:59:58.925Z,18.57
2017-10-25T10:01:08.945Z,18.65
2017-10-25T10:02:19.115Z,18.63
2017-10-25T10:03:28.537Z,18.62
2017-10-25T10:04:39.299Z,18.69
2017-10-25T10:05:48.232Z,18.93
2017-10-25T10:06:58.028Z,18.94
2017-10-25T10:08:07.906Z,18.87
2017-10-25T10:09:17.767Z,18.76
2017-10-25T10:10:27.651Z,18.54
2017-10-25T10:11:37.988Z,18.50
2017-10-25T10:12:47.372Z,18.48
2017-10-25T10:13:57.232Z,18.45
2017-10-25T10:15:07.121Z,18.45
2017-10-25T10:16:16.982Z,18.28
2017-10-25T10:17:26.898Z,18.20
2017-10-25T10:18:36.811Z,18.17
2017-10-25T10:19:46.574Z,18.17
2017-10-25T10:20:56.399Z,18.14
2017-10-25T10:22:06.235Z,18.10
2017-10-25T10:23:16.092Z,18.09
2017-10-25T10:24:25.928Z,18.21
2017-10-25T10:25:35.863Z,18.22
2017-10-25T10:26:46.909Z,18.27
2017-10-25T10:27:55.501Z,18.22
2017-10-25T10:29:05.380Z,18.27
2017-10-25T10:30:15.185Z,18.35
2017-10-25T10:31:25.309Z,18.31
2017-10-25T10:32:34.915Z,18.32
2017-10-25T10:33:44.830Z,18.35
2017-10-25T10:34:54.613Z,18.34
2017-10-25T10:36:04.500Z,18.32
2017-10-25T10:37:14.343Z,18.31
2017-10-25T10:38:24.192Z,18.32
2017-10-25T10:39:34.049Z,18.35
2017-10-25T10:40:43.910Z,18.44
2017-10-25T10:41:53.799Z,18.57
2017-10-25T10:43:03.636Z,18.63
2017-10-25T10:44:13.572Z,18.62
2017-10-25T10:45:23.370Z,18.67
2017-10-25T10:46:33.270Z,18.70
2017-10-25T10:47:43.116Z,18.63
2017-10-25T10:48:53.026Z,18.60
2017-10-25T10:50:02.863Z,18.56
2017-10-25T10:51:12.740Z,18.68
2017-10-25T10:52:22.640Z,18.87
2017-10-25T10:53:32.992Z,18.98
2017-10-25T10:54:43.342Z,19.04
2017-10-25T10:55:52.769Z,19.05
2017-10-25T10:57:02.144Z,19.11
2017-10-25T10:58:13.057Z,19.21
2017-10-25T10:59:22.896Z,19.19
2017-10-25T11:00:31.796Z,19.29
2017-10-25T11:01:41.712Z,19.19
2017-10-25T11:02:51.597Z,19.10
2017-10-25T11:04:01.480Z,18.97
2017-10-25T11:05:11.381Z,19.05
2017-10-25T11:06:21.846Z,19.12
2017-10-25T11:07:31.760Z,19.12
2017-10-25T11:08:41.701Z,19.07
2017-10-25T11:09:51.025Z,19.07
2017-10-25T11:11:00.967Z,19.12
2017-10-25T11:12:11.849Z,19.06
2017-10-25T11:13:20.746Z,19.09
2017-10-25T11:14:30.684Z,19.20
2017-10-25T11:15:40.561Z,19.37
2017-10-25T11:16:50.478Z,19.48
2017-10-25T11:18:00.366Z,19.52
2017-10-25T11:19:10.345Z,19.55
2017-10-25T11:20:20.280Z,19.85
2017-10-25T11:21:30.403Z,19.95
2017-10-25T11:22:40.673Z,20.04
2017-10-25T11:23:50.144Z,20.00
2017-10-25T11:25:00.143Z,19.88
2017-10-25T11:26:10.184Z,19.89
2017-10-25T11:27:20.146Z,19.92
2017-10-25T11:28:30.167Z,19.65
2017-10-25T11:29:40.107Z,19.47
2017-10-25T11:30:50.015Z,19.37
2017-10-25T11:32:00.108Z,19.32
2017-10-25T11:33:10.544Z,19.22
2017-10-25T11:34:19.934Z,19.12
2017-10-25T11:35:29.986Z,19.18
2017-10-25T11:36:39.952Z,19.19
2017-10-25T11:37:49.794Z,19.20
2017-10-25T11:38:59.734Z,19.28
2017-10-25T11:40:09.673Z,19.29
2017-10-25T11:41:19.615Z,19.38
2017-10-25T11:42:29.578Z,19.39
2017-10-25T11:43:39.591Z,19.37
2017-10-25T11:44:49.533Z,19.47
2017-10-25T11:45:59.471Z,19.53
2017-10-25T11:47:09.672Z,19.57
2017-10-25T11:48:19.349Z,19.54
2017-10-25T11:49:29.396Z,19.48
2017-10-25T11:50:39.338Z,19.23
2017-10-25T11:51:49.376Z,19.06
2017-10-25T11:52:59.577Z,18.95
2017-10-25T11:54:09.258Z,18.98
2017-10-25T11:55:19.306Z,19.11
2017-10-25T11:56:29.240Z,19.19
2017-10-25T11:57:39.179Z,19.27
2017-10-25T11:58:49.137Z,19.28
2017-10-25T11:59:59.107Z,19.22
2017-10-25T12:01:09.078Z,19.22
2017-10-25T12:02:19.675Z,19.19
2017-10-25T12:03:29.086Z,19.14
2017-10-25T12:04:39.102Z,19.20
2017-10-25T12:05:49.065Z,19.23
2017-10-25T12:06:59.008Z,19.40
2017-10-25T12:08:08.964Z,19.71
2017-10-25T12:09:19.096Z,20.01
2017-10-25T12:10:28.928Z,20.07
2017-10-25T12:11:38.869Z,20.28
2017-10-25T12:12:48.840Z,20.43
2017-10-25T12:13:58.853Z,20.60
2017-10-25T12:15:08.805Z,20.80
2017-10-25T12:16:18.823Z,20.90
2017-10-25T12:17:28.901Z,20.90
2017-10-25T12:18:38.879Z,20.98
2017-10-25T12:19:49.475Z,21.06
2017-10-25T12:20:59.006Z,21.07
2017-10-25T12:22:09.999Z,20.98
2017-10-25T12:23:19.105Z,20.79
2017-10-25T12:24:30.057Z,20.69
2017-10-25T12:25:39.085Z,20.65
2017-10-25T12:26:49.120Z,20.44
2017-10-25T12:27:59.144Z,20.25
2017-10-25T12:29:09.141Z,20.15
2017-10-25T12:30:19.242Z,20.12
2017-10-25T12:31:29.694Z,20.04
2017-10-25T12:32:39.921Z,20.03
2017-10-25T12:33:49.855Z,20.11
2017-10-25T12:34:59.311Z,20.20
2017-10-25T12:36:09.238Z,20.29
2017-10-25T12:37:19.296Z,20.27
2017-10-25T12:38:29.963Z,20.14
2017-10-25T12:39:39.304Z,20.05
2017-10-25T12:40:49.350Z,19.97
2017-10-25T12:41:59.460Z,19.88
2017-10-25T12:43:09.526Z,19.78
2017-10-25T12:44:19.551Z,19.72
2017-10-25T12:45:29.589Z,19.70
2017-10-25T12:46:39.661Z,19.71
2017-10-25T12:47:49.892Z,19.70
2017-10-25T12:48:59.834Z,19.68
2017-10-25T12:50:09.964Z,19.67
2017-10-25T12:51:20.108Z,19.65
2017-10-25T12:52:30.226Z,19.54
2017-10-25T12:53:40.256Z,19.54
2017-10-25T12:54:50.340Z,19.56
2017-10-25T12:56:00.559Z,19.54
2017-10-25T12:57:10.629Z,19.54
2017-10-25T12:58:20.707Z,19.59
2017-10-25T12:59:30.817Z,19.60
2017-10-25T13:00:40.932Z,19.64
2017-10-25T13:01:51.180Z,19.68
2017-10-25T13:03:01.312Z,19.67
2017-10-25T13:04:11.409Z,19.62
2017-10-25T13:05:21.451Z,19.55
2017-10-25T13:06:31.582Z,19.54
2017-10-25T13:07:41.665Z,19.53
2017-10-25T13:08:51.773Z,19.52
2017-10-25T13:10:01.914Z,19.54
2017-10-25T13:11:12.543Z,19.59
2017-10-25T13:12:21.999Z,19.62
2017-10-25T13:13:32.328Z,19.70
2017-10-25T13:14:42.185Z,19.77
2017-10-25T13:15:52.203Z,19.86
2017-10-25T13:17:03.299Z,19.95
2017-10-25T13:18:12.402Z,20.04
2017-10-25T13:19:22.521Z,20.14
2017-10-25T13:20:32.703Z,20.14
2017-10-25T13:21:42.824Z,20.12
2017-10-25T13:22:53.407Z,20.12
2017-10-25T13:24:02.963Z,20.14
2017-10-25T13:25:13.045Z,20.19
2017-10-25T13:26:23.224Z,20.20
2017-10-25T13:27:33.284Z,20.25
2017-10-25T13:28:43.440Z,20.27
2017-10-25T13:29:53.562Z,20.31
2017-10-25T13:31:03.701Z,20.37
2017-10-25T13:32:13.847Z,20.48
2017-10-25T13:33:23.887Z,20.62
2017-10-25T13:34:34.218Z,20.62
2017-10-25T13:35:44.028Z,20.63
2017-10-25T13:36:54.126Z,20.69
2017-10-25T13:38:04.263Z,20.71
2017-10-25T13:39:14.275Z,20.70
2017-10-25T13:40:24.311Z,20.62
2017-10-25T13:41:34.369Z,20.59
2017-10-25T13:42:44.430Z,20.62
2017-10-25T13:43:54.593Z,20.64
2017-10-25T13:45:04.521Z,20.67
2017-10-25T13:46:14.666Z,20.70
2017-10-25T13:47:24.707Z,20.73
2017-10-25T13:48:34.652Z,20.69
2017-10-25T13:49:44.871Z,20.57
2017-10-25T13:50:54.731Z,20.47
2017-10-25T13:52:04.718Z,20.45
2017-10-25T13:53:14.726Z,20.46
2017-10-25T13:54:24.777Z,20.48
2017-10-25T13:55:34.745Z,20.45
2017-10-25T13:56:44.742Z,20.39
2017-10-25T13:57:54.778Z,20.35
2017-10-25T13:59:05.007Z,20.36
2017-10-25T14:00:14.724Z,20.36
2017-10-25T14:01:24.712Z,20.29
2017-10-25T14:02:34.744Z,20.22
2017-10-25T14:03:45.199Z,20.11
2017-10-25T14:04:54.704Z,20.01
2017-10-25T14:06:04.768Z,19.87
2017-10-25T14:07:14.713Z,19.75
2017-10-25T14:08:24.751Z,19.65
2017-10-25T14:09:34.709Z,19.57
2017-10-25T14:10:44.663Z,19.54
2017-10-25T14:11:54.677Z,19.54
2017-10-25T14:13:04.666Z,19.44
2017-10-25T14:14:14.777Z,19.29
2017-10-25T14:15:24.716Z,19.20
2017-10-25T14:16:34.693Z,19.14
2017-10-25T14:17:44.785Z,19.12
2017-10-25T14:18:54.724Z,19.04
2017-10-25T14:20:04.695Z,19.01
2017-10-25T14:21:14.707Z,19.06
2017-10-25T14:22:24.749Z,19.15
2017-10-25T14:23:35.204Z,19.19
2017-10-25T14:24:44.731Z,19.21
2017-10-25T14:25:54.775Z,19.26
2017-10-25T14:27:04.817Z,19.29
2017-10-25T14:28:14.786Z,19.31
2017-10-25T14:29:25.924Z,19.36
2017-10-25T14:30:34.890Z,19.37
2017-10-25T14:31:44.914Z,19.39
2017-10-25T14:32:54.955Z,19.46
2017-10-25T14:34:05.072Z,19.46
2017-10-25T14:35:16.065Z,19.45
2017-10-25T14:36:25.155Z,19.38
2017-10-25T14:37:35.126Z,19.35
2017-10-25T14:38:46.167Z,19.29
2017-10-25T14:39:55.256Z,19.28
2017-10-25T14:41:05.239Z,19.32
2017-10-25T14:42:15.367Z,19.29
2017-10-25T14:43:25.309Z,19.23
2017-10-25T14:44:35.329Z,19.22
2017-10-25T14:45:45.377Z,19.17
2017-10-25T14:46:55.511Z,19.15
2017-10-25T14:48:05.479Z,19.11
2017-10-25T14:49:15.494Z,19.04
2017-10-25T14:50:25.477Z,19.03
2017-10-25T14:51:35.578Z,19.00
2017-10-25T14:52:45.406Z,18.94
2017-10-25T14:53:55.394Z,18.86
2017-10-25T14:55:05.441Z,18.76
2017-10-25T14:56:15.368Z,18.67
2017-10-25T14:57:25.927Z,18.60
2017-10-25T14:58:35.349Z,18.54